createdAt,value
2023-02-19T00:01:26.252Z,19.13
2023-02-19T00:03:59.039Z,18.55
2023-02-19T00:06:28.330Z,17.38
2023-02-19T00:08:55.703Z,16.15
2023-02-19T00:11:25.214Z,15.82
2023-02-19T00:13:53.677Z,15.43
2023-02-19T00:16:25.189Z,14.07
2023-02-19T00:18:53.384Z,14.23
2023-02-19T00:21:20.319Z,15.07
2023-02-19T00:23:51.677Z,14.38
2023-02-19T00:26:19.119Z,14.63
2023-02-19T00:28:49.349Z,13.48
2023-02-19T00:31:31.479Z,13.45
2023-02-19T00:34:02.107Z,11.40
2023-02-19T00:36:29.352Z,13.60
2023-02-19T00:38:56.297Z,11.00
2023-02-19T00:41:24.192Z,11.55
2023-02-19T00:43:52.326Z,11.55
2023-02-19T00:46:26.681Z,11.75
2023-02-19T00:48:54.294Z,11.27
2023-02-19T00:51:23.135Z,11.38
2023-02-19T00:53:50.098Z,13.15
2023-02-19T00:56:16.779Z,12.57
2023-02-19T00:58:43.562Z,14.68
2023-02-19T01:01:11.427Z,16.48
2023-02-19T01:03:39.519Z,15.27
2023-02-19T01:06:09.122Z,15.00
2023-02-19T01:08:36.586Z,16.58
2023-02-19T01:11:05.412Z,16.85
2023-02-19T01:13:33.031Z,15.82
2023-02-19T01:16:13.746Z,14.95
2023-02-19T01:18:40.620Z,15.00
2023-02-19T01:21:28.250Z,15.82
2023-02-19T01:23:56.072Z,15.02
2023-02-19T01:26:28.675Z,13.00
2023-02-19T01:28:55.371Z,12.70
2023-02-19T01:31:24.160Z,13.75
2023-02-19T01:33:53.623Z,12.18
2023-02-19T01:36:20.521Z,11.75
2023-02-19T01:38:47.439Z,12.50
2023-02-19T01:41:20.021Z,11.95
2023-02-19T01:46:33.382Z,11.10
2023-02-19T01:49:06.472Z,10.82
2023-02-19T01:51:35.882Z,11.35
2023-02-19T01:54:06.684Z,10.93
2023-02-19T01:56:35.605Z,10.27
2023-02-19T01:59:03.217Z,10.98
2023-02-19T02:01:29.855Z,9.88
2023-02-19T02:03:57.232Z,10.73
2023-02-19T02:06:36.273Z,10.13
2023-02-19T02:09:21.654Z,9.80
2023-02-19T02:11:51.237Z,10.20
2023-02-19T02:14:22.109Z,11.63
2023-02-19T02:17:09.922Z,11.38
2023-02-19T02:20:08.006Z,11.90
2023-02-19T02:22:44.667Z,11.88
2023-02-19T02:25:33.821Z,11.48
2023-02-19T02:28:08.074Z,11.13
2023-02-19T02:30:47.761Z,10.32
2023-02-19T02:33:28.414Z,10.27
2023-02-19T02:36:05.240Z,9.95
2023-02-19T02:38:37.058Z,10.43
2023-02-19T02:41:05.303Z,9.65
2023-02-19T02:43:31.999Z,11.02
2023-02-19T02:45:59.347Z,9.05
2023-02-19T02:48:47.137Z,9.40
2023-02-19T02:51:24.490Z,9.50
2023-02-19T02:54:25.369Z,7.88
2023-02-19T02:56:54.460Z,8.48
2023-02-19T02:59:26.150Z,8.23
2023-02-19T03:02:14.692Z,8.30
2023-02-19T03:05:36.579Z,8.10
2023-02-19T03:08:17.698Z,8.18
2023-02-19T03:11:24.035Z,7.38
2023-02-19T03:14:13.827Z,8.30
2023-02-19T03:17:02.716Z,7.32
2023-02-19T03:19:34.349Z,5.70
2023-02-19T03:22:14.336Z,7.95
2023-02-19T03:25:10.638Z,6.47
2023-02-19T03:27:39.980Z,6.85
2023-02-19T03:30:21.249Z,6.43
2023-02-19T03:32:54.927Z,6.97
2023-02-19T03:35:25.784Z,6.13
2023-02-19T03:38:04.774Z,5.68
2023-02-19T03:40:44.035Z,6.00
2023-02-19T03:43:21.268Z,6.13
2023-02-19T03:46:14.375Z,6.72
2023-02-19T03:48:57.252Z,6.97
2023-02-19T03:51:40.178Z,6.25
2023-02-19T03:54:13.136Z,5.78
2023-02-19T03:56:50.220Z,5.65
2023-02-19T03:59:24.312Z,6.53
2023-02-19T04:01:56.483Z,5.22
2023-02-19T04:04:32.387Z,5.55
2023-02-19T04:06:59.230Z,5.25
2023-02-19T04:09:36.916Z,6.05
2023-02-19T04:12:09.988Z,5.38
2023-02-19T04:14:46.854Z,5.63
2023-02-19T04:17:34.901Z,6.10
2023-02-19T04:20:07.019Z,5.53
2023-02-19T04:22:36.223Z,6.45
2023-02-19T04:25:03.344Z,5.30
2023-02-19T04:27:29.925Z,6.05
2023-02-19T04:29:56.954Z,5.82
2023-02-19T04:32:23.580Z,6.03
2023-02-19T04:34:50.128Z,5.57
2023-02-19T04:37:16.774Z,5.90
2023-02-19T04:39:43.322Z,6.53
2023-02-19T04:42:10.937Z,5.88
2023-02-19T04:44:37.489Z,6.53
2023-02-19T04:47:04.152Z,7.32
2023-02-19T04:49:30.663Z,7.07
2023-02-19T04:51:57.231Z,6.55
2023-02-19T04:54:23.875Z,7.28
2023-02-19T04:56:50.790Z,6.57
2023-02-19T04:59:17.501Z,7.22
2023-02-19T05:01:44.284Z,7.00
2023-02-19T05:04:10.909Z,6.93
2023-02-19T05:06:37.544Z,7.35
2023-02-19T05:09:04.154Z,7.90
2023-02-19T05:11:30.739Z,7.07
2023-02-19T05:13:57.392Z,7.63
2023-02-19T05:16:23.995Z,7.13
2023-02-19T05:18:50.651Z,6.22
2023-02-19T05:21:17.211Z,7.40
2023-02-19T05:23:44.088Z,8.60
2023-02-19T05:26:17.881Z,7.32
2023-02-19T05:28:45.722Z,7.15
2023-02-19T05:31:13.631Z,7.65
2023-02-19T05:33:42.837Z,7.65
2023-02-19T05:36:12.768Z,8.25
2023-02-19T05:38:40.985Z,6.60
2023-02-19T05:41:25.633Z,9.57
2023-02-19T05:43:52.431Z,8.32
2023-02-19T05:46:21.584Z,8.35
2023-02-19T05:48:49.585Z,7.47
2023-02-19T05:51:18.529Z,8.13
2023-02-19T05:53:45.752Z,8.60
2023-02-19T05:56:30.544Z,7.78
2023-02-19T05:58:58.363Z,8.55
2023-02-19T06:01:27.667Z,8.45
2023-02-19T06:03:57.402Z,7.03
2023-02-19T06:06:24.863Z,8.50
2023-02-19T06:08:51.572Z,7.10
2023-02-19T06:11:19.311Z,8.15
2023-02-19T06:13:46.362Z,7.25
2023-02-19T06:16:13.215Z,7.78
2023-02-19T06:18:41.168Z,7.65
2023-02-19T06:21:10.147Z,7.82
2023-02-19T06:23:37.485Z,6.68
2023-02-19T06:26:15.071Z,7.50
2023-02-19T06:28:42.292Z,7.80
2023-02-19T06:31:10.226Z,6.45
2023-02-19T06:33:40.389Z,6.30
2023-02-19T06:36:10.999Z,5.90
2023-02-19T06:38:37.673Z,7.38
2023-02-19T06:41:06.157Z,7.20
2023-02-19T06:43:33.817Z,7.80
2023-02-19T06:46:05.340Z,6.40
2023-02-19T06:48:33.483Z,6.30
2023-02-19T06:51:00.047Z,5.88
2023-02-19T06:53:27.466Z,6.10
2023-02-19T06:55:57.913Z,6.30
2023-02-19T06:58:24.706Z,6.07
2023-02-19T07:00:51.591Z,6.22
2023-02-19T07:03:18.178Z,5.70
2023-02-19T07:05:44.786Z,5.97
2023-02-19T07:08:11.342Z,6.05
2023-02-19T07:10:37.978Z,6.47
2023-02-19T07:13:05.067Z,6.32
2023-02-19T07:15:31.627Z,5.75
2023-02-19T07:17:59.504Z,5.38
2023-02-19T07:20:26.322Z,5.22
2023-02-19T07:22:52.985Z,5.50
2023-02-19T07:25:19.727Z,5.28
2023-02-19T07:27:46.376Z,5.75
2023-02-19T07:30:15.582Z,5.45
2023-02-19T07:32:42.645Z,5.63
2023-02-19T07:35:09.185Z,5.80
2023-02-19T07:37:35.810Z,4.78
2023-02-19T07:40:03.371Z,5.72
2023-02-19T07:42:33.686Z,4.65
2023-02-19T07:45:00.866Z,6.45
2023-02-19T07:47:29.313Z,5.65
2023-02-19T07:49:55.957Z,5.88
2023-02-19T07:52:22.579Z,5.90
2023-02-19T07:54:49.194Z,5.80
2023-02-19T07:57:15.881Z,5.75
2023-02-19T07:59:42.497Z,6.10
2023-02-19T08:02:35.203Z,6.60
2023-02-19T08:05:02.338Z,5.80
2023-02-19T08:07:36.375Z,6.25
2023-02-19T08:10:23.332Z,6.30
2023-02-19T08:13:16.752Z,6.40
2023-02-19T08:15:43.896Z,5.72
2023-02-19T08:18:10.922Z,6.72
2023-02-19T08:20:37.622Z,6.53
2023-02-19T08:23:05.684Z,6.40
2023-02-19T08:25:32.869Z,6.47
2023-02-19T08:28:00.416Z,6.75
2023-02-19T08:30:31.204Z,6.85
2023-02-19T08:33:02.038Z,8.23
2023-02-19T08:35:29.065Z,9.23
2023-02-19T08:37:59.761Z,10.90
2023-02-19T08:40:26.450Z,8.32
2023-02-19T08:42:53.288Z,8.27
2023-02-19T08:45:20.282Z,8.27
2023-02-19T08:47:46.869Z,6.28
2023-02-19T08:50:13.562Z,6.00
2023-02-19T08:52:40.179Z,6.13
2023-02-19T08:55:07.101Z,5.03
2023-02-19T08:57:37.420Z,5.78
2023-02-19T09:00:05.964Z,4.70
2023-02-19T09:02:33.117Z,4.65
2023-02-19T09:04:59.683Z,5.00
2023-02-19T09:07:26.825Z,5.00
2023-02-19T09:09:53.513Z,5.13
2023-02-19T09:12:20.535Z,5.32
2023-02-19T09:14:47.741Z,5.50
2023-02-19T09:17:14.417Z,5.75
2023-02-19T09:19:40.936Z,5.05
2023-02-19T09:22:07.625Z,5.90
2023-02-19T09:24:34.221Z,5.55
2023-02-19T09:27:01.016Z,5.38
2023-02-19T09:29:28.799Z,5.93
2023-02-19T09:32:00.275Z,5.50
2023-02-19T09:34:28.445Z,4.80
2023-02-19T09:36:55.543Z,5.43
2023-02-19T09:39:22.135Z,4.93
2023-02-19T09:41:57.939Z,5.05
2023-02-19T09:44:29.530Z,4.43
2023-02-19T09:46:56.761Z,4.65
2023-02-19T09:49:31.847Z,4.70
2023-02-19T09:52:06.018Z,5.28
2023-02-19T09:54:33.911Z,4.95
2023-02-19T09:57:02.784Z,5.53
2023-02-19T09:59:37.481Z,5.53
2023-02-19T10:02:23.816Z,4.60
2023-02-19T10:04:52.092Z,6.00
2023-02-19T10:07:22.467Z,5.85
2023-02-19T10:09:55.628Z,5.93
2023-02-19T10:12:31.092Z,5.65
2023-02-19T10:15:36.055Z,5.88
2023-02-19T10:18:04.363Z,6.05
2023-02-19T10:20:31.416Z,7.40
2023-02-19T10:23:06.558Z,7.63
2023-02-19T10:25:34.653Z,6.43
2023-02-19T10:28:02.250Z,6.30
2023-02-19T10:30:33.700Z,6.57
2023-02-19T10:33:09.795Z,16.40
2023-02-19T10:35:51.114Z,11.90
2023-02-19T10:38:20.415Z,11.63
2023-02-19T10:40:47.557Z,8.38
2023-02-19T10:43:31.091Z,9.15
2023-02-19T10:45:59.561Z,7.10
2023-02-19T10:48:36.993Z,7.70
2023-02-19T10:51:08.338Z,8.45
2023-02-19T10:53:44.907Z,5.03
2023-02-19T10:56:29.762Z,5.82
2023-02-19T10:59:16.043Z,4.65
2023-02-19T11:01:56.126Z,4.63
2023-02-19T11:04:24.416Z,4.57
2023-02-19T11:06:51.551Z,4.57
2023-02-19T11:09:29.145Z,4.63
2023-02-19T11:11:57.732Z,3.75
2023-02-19T11:14:26.056Z,3.53
2023-02-19T11:16:58.130Z,3.67
2023-02-19T11:19:41.178Z,4.80
2023-02-19T11:22:29.453Z,2.85
2023-02-19T11:24:59.616Z,4.20
2023-02-19T11:27:26.379Z,3.20
2023-02-19T11:29:53.012Z,4.65
2023-02-19T11:32:30.587Z,4.85
2023-02-19T11:35:22.938Z,3.13
2023-02-19T11:37:55.691Z,3.53
2023-02-19T11:40:30.494Z,3.30
2023-02-19T11:43:12.814Z,3.60
2023-02-19T11:45:56.609Z,3.85
2023-02-19T11:48:58.148Z,3.75
2023-02-19T11:51:28.239Z,3.47
2023-02-19T11:54:10.620Z,3.72
2023-02-19T11:56:40.812Z,3.85
2023-02-19T11:59:26.486Z,3.70
2023-02-19T12:02:23.723Z,4.05
2023-02-19T12:04:53.324Z,3.88
2023-02-19T12:07:38.125Z,4.25
2023-02-19T12:10:18.380Z,3.42
2023-02-19T12:13:00.443Z,3.90
2023-02-19T12:15:45.292Z,3.28
2023-02-19T12:18:36.896Z,10.35
2023-02-19T12:21:06.605Z,13.73
2023-02-19T12:23:54.767Z,4.80
2023-02-19T12:26:29.516Z,3.35
2023-02-19T12:29:34.375Z,3.22
2023-02-19T12:32:16.146Z,3.28
2023-02-19T12:35:08.317Z,2.92
2023-02-19T12:37:46.903Z,3.10
2023-02-19T12:40:41.357Z,3.75
2023-02-19T12:43:18.324Z,3.22
2023-02-19T12:46:17.141Z,3.70
2023-02-19T12:48:58.844Z,3.08
2023-02-19T12:51:55.069Z,3.13
2023-02-19T12:54:28.184Z,2.22
2023-02-19T12:57:02.176Z,2.20
2023-02-19T12:59:35.525Z,2.30
2023-02-19T13:02:05.206Z,2.65
2023-02-19T13:05:04.441Z,3.83
2023-02-19T13:07:38.421Z,4.32
2023-02-19T13:10:11.072Z,4.45
2023-02-19T13:15:31.721Z,3.75
2023-02-19T13:18:01.578Z,3.78
2023-02-19T13:20:38.893Z,4.35
2023-02-19T13:23:31.645Z,4.32
2023-02-19T13:26:38.787Z,3.50
2023-02-19T13:29:23.920Z,3.80
2023-02-19T13:32:04.752Z,4.18
2023-02-19T13:34:59.600Z,3.33
2023-02-19T13:37:26.711Z,3.35
2023-02-19T13:39:55.372Z,3.67
2023-02-19T13:42:34.284Z,3.55
2023-02-19T13:45:04.002Z,4.38
2023-02-19T13:47:58.668Z,4.40
2023-02-19T13:50:31.335Z,4.70
2023-02-19T13:55:47.220Z,4.75
2023-02-19T13:58:32.756Z,4.53
2023-02-19T14:01:01.256Z,4.60
2023-02-19T14:03:45.542Z,5.10
2023-02-19T14:06:12.469Z,4.60
2023-02-19T14:08:56.589Z,4.88
2023-02-19T14:11:41.400Z,4.30
2023-02-19T14:14:22.931Z,6.63
2023-02-19T14:16:54.181Z,12.20
2023-02-19T14:19:42.104Z,10.32
2023-02-19T14:22:50.334Z,7.35
2023-02-19T14:25:32.003Z,8.95
2023-02-19T14:28:02.831Z,10.65
2023-02-19T14:30:31.617Z,7.53
2023-02-19T14:33:10.295Z,10.93
2023-02-19T14:35:44.086Z,9.82
2023-02-19T14:38:27.135Z,4.63
2023-02-19T14:40:55.478Z,7.57
2023-02-19T14:43:24.755Z,4.00
2023-02-19T14:46:22.876Z,4.82
2023-02-19T14:48:50.684Z,5.57
2023-02-19T14:51:30.505Z,7.63
2023-02-19T14:54:01.401Z,6.38
2023-02-19T14:56:34.156Z,11.00
2023-02-19T14:59:25.186Z,5.78
2023-02-19T15:01:56.783Z,5.57
2023-02-19T15:04:26.434Z,6.82
2023-02-19T15:06:56.599Z,7.07
2023-02-19T15:09:31.796Z,5.82
2023-02-19T15:11:59.720Z,5.90
2023-02-19T15:14:30.547Z,6.40
2023-02-19T15:17:01.117Z,5.97
2023-02-19T15:19:32.824Z,5.75
2023-02-19T15:21:59.680Z,5.65
2023-02-19T15:24:28.167Z,4.82
2023-02-19T15:26:55.348Z,5.22
2023-02-19T15:29:24.628Z,6.03
2023-02-19T15:31:53.927Z,5.68
2023-02-19T15:34:31.983Z,5.40
2023-02-19T15:37:02.088Z,4.90
2023-02-19T15:39:48.043Z,5.40
2023-02-19T15:42:21.187Z,4.20
2023-02-19T15:44:47.689Z,4.40
2023-02-19T15:47:21.799Z,3.60
2023-02-19T15:49:58.288Z,3.53
2023-02-19T15:52:48.822Z,4.20
2023-02-19T15:55:21.637Z,3.78
2023-02-19T15:58:04.513Z,4.20
2023-02-19T16:03:01.687Z,3.60
2023-02-19T16:05:29.121Z,4.38
2023-02-19T16:08:07.263Z,3.60
2023-02-19T16:10:34.010Z,3.50
2023-02-19T16:13:03.266Z,6.28
2023-02-19T16:15:31.938Z,3.42
2023-02-19T16:17:59.476Z,2.97
2023-02-19T16:20:32.403Z,2.80
2023-02-19T16:23:02.920Z,4.00
2023-02-19T16:25:37.235Z,3.25
2023-02-19T16:28:20.251Z,3.25
2023-02-19T16:30:47.368Z,3.45
2023-02-19T16:33:36.209Z,3.70
2023-02-19T16:36:21.395Z,4.10
2023-02-19T16:39:03.275Z,3.33
2023-02-19T16:41:29.912Z,3.07
2023-02-19T16:43:56.461Z,3.75
2023-02-19T16:46:23.479Z,3.40
2023-02-19T16:48:51.044Z,2.80
2023-02-19T16:51:26.192Z,3.70
2023-02-19T16:53:52.998Z,3.47
2023-02-19T16:56:22.849Z,3.30
2023-02-19T16:58:50.270Z,3.92
2023-02-19T17:01:17.524Z,3.83
2023-02-19T17:03:47.021Z,3.20
2023-02-19T17:06:14.193Z,3.95
2023-02-19T17:08:43.404Z,3.35
2023-02-19T17:11:15.352Z,4.40
2023-02-19T17:13:43.322Z,3.13
2023-02-19T17:16:23.396Z,3.40
2023-02-19T17:18:50.696Z,3.30
2023-02-19T17:21:25.069Z,3.35
2023-02-19T17:23:53.818Z,4.03
2023-02-19T17:26:26.547Z,3.45
2023-02-19T17:28:54.023Z,3.20
2023-02-19T17:31:20.733Z,4.10
2023-02-19T17:33:47.385Z,3.85
2023-02-19T17:36:23.731Z,4.55
2023-02-19T17:38:50.433Z,4.75
2023-02-19T17:41:17.027Z,4.85
2023-02-19T17:43:43.717Z,5.13
2023-02-19T17:46:22.377Z,5.35
2023-02-19T17:48:49.396Z,6.95
2023-02-19T17:51:16.284Z,5.03
2023-02-19T17:53:43.411Z,4.65
2023-02-19T17:56:16.045Z,4.55
2023-02-19T18:01:09.167Z,4.75
2023-02-19T18:03:35.905Z,4.28
2023-02-19T18:06:02.450Z,6.32
2023-02-19T18:08:29.044Z,5.82
2023-02-19T18:10:55.632Z,5.07
2023-02-19T18:13:22.305Z,5.30
2023-02-19T18:15:49.873Z,5.47
2023-02-19T18:18:16.525Z,6.13
2023-02-19T18:20:43.222Z,6.32
2023-02-19T18:23:09.884Z,6.95
2023-02-19T18:25:36.453Z,7.35
2023-02-19T18:28:02.989Z,7.15
2023-02-19T18:30:30.129Z,8.00
2023-02-19T18:32:57.416Z,7.22
2023-02-19T18:35:24.043Z,7.53
2023-02-19T18:37:52.624Z,6.80
2023-02-19T18:40:25.768Z,6.35
2023-02-19T18:42:52.763Z,7.00
2023-02-19T18:45:19.329Z,6.20
2023-02-19T18:47:47.678Z,4.68
2023-02-19T18:50:15.013Z,5.53
2023-02-19T18:52:41.530Z,3.60
2023-02-19T18:55:10.417Z,6.18
2023-02-19T18:57:37.022Z,3.95
2023-02-19T19:00:06.301Z,3.30
2023-02-19T19:02:47.147Z,7.25
2023-02-19T19:05:23.168Z,3.85
2023-02-19T19:07:59.145Z,3.50
2023-02-19T19:10:26.326Z,4.38
2023-02-19T19:12:54.151Z,2.70
2023-02-19T19:15:21.870Z,3.65
2023-02-19T19:17:48.653Z,3.35
2023-02-19T19:20:20.883Z,4.25
2023-02-19T19:22:52.744Z,3.75
2023-02-19T19:25:21.079Z,2.90
2023-02-19T19:27:50.309Z,3.30
2023-02-19T19:30:17.350Z,3.30
2023-02-19T19:32:44.049Z,3.22
2023-02-19T19:35:10.685Z,3.17
2023-02-19T19:37:37.293Z,3.63
2023-02-19T19:40:04.271Z,3.05
2023-02-19T19:42:30.862Z,3.10
2023-02-19T19:44:57.552Z,2.55
2023-02-19T19:47:24.187Z,5.70
2023-02-19T19:49:50.901Z,4.82
2023-02-19T19:52:17.496Z,4.57
2023-02-19T19:54:44.622Z,3.10
2023-02-19T19:57:12.137Z,3.03
2023-02-19T19:59:39.448Z,4.22
2023-02-19T20:02:07.412Z,3.38
2023-02-19T20:04:34.019Z,11.02
2023-02-19T20:07:00.832Z,26.42
2023-02-19T20:09:28.988Z,11.13
2023-02-19T20:11:55.881Z,15.93
2023-02-19T20:14:23.804Z,13.18
2023-02-19T20:16:50.568Z,19.33
2023-02-19T20:19:19.463Z,10.02
2023-02-19T20:21:48.204Z,11.50
2023-02-19T20:24:17.679Z,15.90
2023-02-19T20:26:44.749Z,18.15
2023-02-19T20:29:11.660Z,12.75
2023-02-19T20:31:39.283Z,13.82
2023-02-19T20:34:05.972Z,14.50
2023-02-19T20:36:32.789Z,10.15
2023-02-19T20:38:59.433Z,9.35
2023-02-19T20:41:26.198Z,7.93
2023-02-19T20:43:52.882Z,10.25
2023-02-19T20:46:19.534Z,6.93
2023-02-19T20:48:46.231Z,7.50
2023-02-19T20:51:12.792Z,7.55
2023-02-19T20:53:42.226Z,5.97
2023-02-19T20:56:09.116Z,5.45
2023-02-19T20:58:35.816Z,6.47
2023-02-19T21:01:02.347Z,5.88
2023-02-19T21:03:29.372Z,7.25
2023-02-19T21:05:55.964Z,8.00
2023-02-19T21:08:22.480Z,15.35
2023-02-19T21:10:49.109Z,6.00
2023-02-19T21:13:15.735Z,7.15
2023-02-19T21:15:42.442Z,7.60
2023-02-19T21:18:09.276Z,6.65
2023-02-19T21:20:35.941Z,10.02
2023-02-19T21:23:03.545Z,7.95
2023-02-19T21:25:32.989Z,5.95
2023-02-19T21:27:59.590Z,5.20
2023-02-19T21:30:26.232Z,5.75
2023-02-19T21:32:52.860Z,4.72
2023-02-19T21:35:19.467Z,5.22
2023-02-19T21:37:46.027Z,4.53
2023-02-19T21:40:13.355Z,4.47
2023-02-19T21:42:40.052Z,4.40
2023-02-19T21:45:07.180Z,4.30
2023-02-19T21:47:33.741Z,4.18
2023-02-19T21:50:00.352Z,4.32
2023-02-19T21:52:26.984Z,4.50
2023-02-19T21:54:53.470Z,4.00
2023-02-19T21:57:20.107Z,5.00
2023-02-19T21:59:46.665Z,5.35
2023-02-19T22:02:13.438Z,4.80
2023-02-19T22:04:40.170Z,4.20
2023-02-19T22:07:06.826Z,4.15
2023-02-19T22:09:33.386Z,4.65
2023-02-19T22:11:59.960Z,4.18
2023-02-19T22:14:26.518Z,4.03
2023-02-19T22:16:53.009Z,4.00
2023-02-19T22:19:19.920Z,4.40
2023-02-19T22:21:46.564Z,4.40
2023-02-19T22:24:19.795Z,4.20
2023-02-19T22:26:47.189Z,4.32
2023-02-19T22:29:15.485Z,4.47
2023-02-19T22:31:43.220Z,4.30
2023-02-19T22:34:09.974Z,4.88
2023-02-19T22:36:40.351Z,4.53
2023-02-19T22:39:08.648Z,4.85
2023-02-19T22:41:35.469Z,5.43
2023-02-19T22:44:02.470Z,5.00
2023-02-19T22:46:32.371Z,5.30
2023-02-19T22:49:03.353Z,6.07
2023-02-19T22:51:30.163Z,7.15
2023-02-19T22:53:58.409Z,8.35
2023-02-19T22:56:27.263Z,7.00
2023-02-19T22:58:55.835Z,7.22
2023-02-19T23:01:23.305Z,6.95
2023-02-19T23:03:55.593Z,7.53
2023-02-19T23:06:27.699Z,7.78
2023-02-19T23:08:56.640Z,7.00
2023-02-19T23:11:25.838Z,7.00
2023-02-19T23:13:53.329Z,7.90
2023-02-19T23:16:20.566Z,8.88
2023-02-19T23:18:48.006Z,9.93
2023-02-19T23:21:15.434Z,8.95
2023-02-19T23:23:42.625Z,9.10
2023-02-19T23:26:10.041Z,9.15
2023-02-19T23:28:38.837Z,9.68
2023-02-19T23:31:05.780Z,10.57
2023-02-19T23:33:32.713Z,9.20
2023-02-19T23:35:59.290Z,10.35
2023-02-19T23:38:25.943Z,10.82
2023-02-19T23:40:52.466Z,9.57
2023-02-19T23:43:19.039Z,10.07
2023-02-19T23:45:45.731Z,9.70
2023-02-19T23:48:12.563Z,10.15
2023-02-19T23:50:39.114Z,10.70
2023-02-19T23:53:05.777Z,11.95
2023-02-19T23:55:32.354Z,13.05
2023-02-19T23:57:58.936Z,12.68
